createdAt,value
2023-11-27T00:03:10.652Z,69.90
2023-11-27T00:07:00.812Z,69.84
2023-11-27T00:10:50.637Z,69.98
2023-11-27T00:14:00.479Z,70.00
2023-11-27T00:17:50.598Z,70.01
2023-11-27T00:21:39.117Z,69.99
2023-11-27T00:25:26.306Z,69.99
2023-11-27T00:29:13.410Z,69.63
2023-11-27T00:33:00.844Z,69.88
2023-11-27T00:36:48.304Z,69.82
2023-11-27T00:40:35.471Z,69.68
2023-11-27T00:44:22.396Z,69.99
2023-11-27T00:48:00.280Z,70.13
2023-11-27T00:50:37.022Z,70.07
2023-11-27T00:53:04.043Z,70.13
2023-11-27T00:55:31.005Z,70.00
2023-11-27T00:57:58.072Z,69.80
2023-11-27T01:00:25.780Z,69.74
2023-11-27T01:02:54.584Z,69.62
2023-11-27T01:05:21.747Z,69.65
2023-11-27T01:07:48.678Z,69.50
2023-11-27T01:10:15.435Z,69.39
2023-11-27T01:12:46.457Z,69.48
2023-11-27T01:15:14.882Z,69.50
2023-11-27T01:17:42.472Z,69.31
2023-11-27T01:20:10.927Z,69.32
2023-11-27T01:22:38.029Z,69.34
2023-11-27T01:25:06.736Z,69.08
2023-11-27T01:27:33.871Z,68.63
2023-11-27T01:30:02.162Z,68.85
2023-11-27T01:32:29.057Z,68.63
2023-11-27T01:34:55.486Z,68.69
2023-11-27T01:37:22.516Z,68.59
2023-11-27T01:39:49.396Z,68.65
2023-11-27T01:42:17.440Z,68.57
2023-11-27T01:44:44.901Z,68.72
2023-11-27T01:47:15.050Z,68.54
2023-11-27T01:49:43.503Z,68.39
2023-11-27T01:52:11.565Z,68.26
2023-11-27T01:54:41.519Z,68.44
2023-11-27T01:57:17.133Z,68.51
2023-11-27T01:59:47.621Z,68.42
2023-11-27T02:05:22.998Z,68.27
2023-11-27T02:07:49.851Z,68.41
2023-11-27T02:10:17.145Z,68.39
2023-11-27T02:12:43.866Z,68.53
2023-11-27T02:15:11.050Z,68.56
2023-11-27T02:17:37.580Z,68.27
2023-11-27T02:20:05.783Z,68.02
2023-11-27T02:22:32.465Z,68.08
2023-11-27T02:24:59.023Z,68.16
2023-11-27T02:27:25.647Z,67.86
2023-11-27T02:29:52.058Z,67.85
2023-11-27T02:32:19.087Z,67.68
2023-11-27T02:34:49.597Z,67.64
2023-11-27T02:37:17.033Z,67.61
2023-11-27T02:39:46.388Z,67.77
2023-11-27T02:42:13.359Z,67.84
2023-11-27T02:44:39.958Z,67.57
2023-11-27T02:47:06.652Z,67.56
2023-11-27T02:49:33.154Z,67.45
2023-11-27T02:51:59.923Z,67.42
2023-11-27T02:54:26.430Z,67.44
2023-11-27T02:56:54.296Z,67.61
2023-11-27T02:59:20.876Z,67.86
2023-11-27T03:01:47.986Z,67.81
2023-11-27T03:04:14.841Z,67.85
2023-11-27T03:06:41.356Z,68.05
2023-11-27T03:09:11.262Z,68.35
2023-11-27T03:11:38.677Z,68.50
2023-11-27T03:14:05.232Z,68.38
2023-11-27T03:16:32.465Z,68.27
2023-11-27T03:18:59.132Z,68.23
2023-11-27T03:21:26.136Z,68.25
2023-11-27T03:23:52.703Z,68.35
2023-11-27T03:26:20.544Z,68.55
2023-11-27T03:28:47.098Z,68.78
2023-11-27T03:31:13.791Z,68.78
2023-11-27T03:33:40.409Z,68.80
2023-11-27T03:36:08.503Z,68.60
2023-11-27T03:38:35.213Z,68.76
2023-11-27T03:41:04.410Z,68.88
2023-11-27T03:43:31.272Z,68.98
2023-11-27T03:45:58.044Z,69.05
2023-11-27T03:48:24.673Z,69.19
2023-11-27T03:50:51.485Z,69.05
2023-11-27T03:53:17.965Z,68.96
2023-11-27T03:55:44.401Z,68.87
2023-11-27T03:58:11.823Z,68.85
2023-11-27T04:00:38.389Z,68.88
2023-11-27T04:03:05.089Z,68.88
2023-11-27T04:05:31.499Z,68.93
2023-11-27T04:07:58.038Z,68.89
2023-11-27T04:10:26.091Z,69.07
2023-11-27T04:12:52.915Z,69.14
2023-11-27T04:15:20.893Z,69.11
2023-11-27T04:17:47.689Z,68.88
2023-11-27T04:20:15.614Z,69.07
2023-11-27T04:22:42.137Z,69.24
2023-11-27T04:25:09.022Z,69.29
2023-11-27T04:27:35.597Z,69.31
2023-11-27T04:30:03.788Z,69.23
2023-11-27T04:32:30.291Z,69.35
2023-11-27T04:34:56.765Z,69.42
2023-11-27T04:37:23.353Z,69.49
2023-11-27T04:39:52.381Z,69.47
2023-11-27T04:42:19.881Z,69.54
2023-11-27T04:44:46.314Z,69.32
2023-11-27T04:47:13.003Z,69.47
2023-11-27T04:49:39.604Z,69.59
2023-11-27T04:52:06.560Z,69.65
2023-11-27T04:54:33.034Z,69.65
2023-11-27T04:56:59.541Z,69.83
2023-11-27T04:59:27.012Z,69.97
2023-11-27T05:01:54.075Z,70.15
2023-11-27T05:04:20.603Z,70.28
2023-11-27T05:06:47.416Z,70.23
2023-11-27T05:09:14.517Z,70.24
2023-11-27T05:11:41.237Z,70.35
2023-11-27T05:14:07.768Z,70.18
2023-11-27T05:16:34.513Z,69.86
2023-11-27T05:19:01.038Z,70.20
2023-11-27T05:21:27.425Z,70.29
2023-11-27T05:23:54.178Z,70.31
2023-11-27T05:26:20.417Z,70.40
2023-11-27T05:28:46.723Z,70.46
2023-11-27T05:31:15.711Z,70.40
2023-11-27T05:33:43.071Z,70.22
2023-11-27T05:36:10.382Z,70.16
2023-11-27T05:38:37.127Z,70.14
2023-11-27T05:41:05.510Z,70.03
2023-11-27T05:43:33.269Z,70.02
2023-11-27T05:46:02.086Z,70.05
2023-11-27T05:48:29.747Z,69.98
2023-11-27T05:50:57.580Z,70.04
2023-11-27T05:53:23.954Z,70.23
2023-11-27T05:55:51.189Z,70.26
2023-11-27T05:58:20.151Z,70.29
2023-11-27T06:00:46.687Z,70.19
2023-11-27T06:03:14.874Z,70.30
2023-11-27T06:05:42.821Z,70.39
2023-11-27T06:08:09.823Z,70.53
2023-11-27T06:10:36.370Z,70.46
2023-11-27T06:13:03.135Z,70.55
2023-11-27T06:15:29.778Z,70.80
2023-11-27T06:17:57.919Z,70.93
2023-11-27T06:20:24.433Z,70.84
2023-11-27T06:22:52.600Z,70.69
2023-11-27T06:25:19.152Z,70.58
2023-11-27T06:27:45.679Z,70.70
2023-11-27T06:30:13.744Z,70.76
2023-11-27T06:32:40.454Z,70.76
2023-11-27T06:35:08.881Z,70.74
2023-11-27T06:37:35.308Z,70.59
2023-11-27T06:40:02.095Z,70.59
2023-11-27T06:42:28.765Z,70.64
2023-11-27T06:44:55.272Z,70.60
2023-11-27T06:47:21.719Z,70.66
2023-11-27T06:49:48.267Z,70.52
2023-11-27T06:52:14.904Z,70.68
2023-11-27T06:54:41.529Z,70.66
2023-11-27T06:57:09.392Z,70.54
2023-11-27T06:59:37.695Z,70.75
2023-11-27T07:02:04.691Z,71.00
2023-11-27T07:04:31.363Z,70.97
2023-11-27T07:06:59.091Z,71.09
2023-11-27T07:09:28.348Z,70.95
2023-11-27T07:11:54.712Z,70.95
2023-11-27T07:14:21.360Z,71.00
2023-11-27T07:16:48.477Z,70.87
2023-11-27T07:19:15.035Z,70.63
2023-11-27T07:21:42.389Z,70.64
2023-11-27T07:24:09.005Z,70.78
2023-11-27T07:26:35.640Z,70.80
2023-11-27T07:29:02.266Z,70.60
2023-11-27T07:31:30.919Z,70.51
2023-11-27T07:33:58.664Z,70.48
2023-11-27T07:36:28.008Z,70.47
2023-11-27T07:38:54.986Z,70.34
2023-11-27T07:41:24.677Z,70.39
2023-11-27T07:43:51.381Z,70.38
2023-11-27T07:46:18.369Z,70.63
2023-11-27T07:48:44.815Z,70.65
2023-11-27T07:51:11.472Z,70.70
2023-11-27T07:53:38.081Z,70.78
2023-11-27T07:56:05.024Z,70.71
2023-11-27T07:58:31.989Z,70.68
2023-11-27T08:00:59.237Z,70.67
2023-11-27T08:03:28.062Z,70.69
2023-11-27T08:05:54.552Z,70.58
2023-11-27T08:08:21.531Z,70.34
2023-11-27T08:10:47.920Z,70.25
2023-11-27T08:13:14.585Z,70.14
2023-11-27T08:15:44.189Z,70.12
2023-11-27T08:18:12.648Z,70.08
2023-11-27T08:20:39.847Z,70.14
2023-11-27T08:23:06.324Z,70.15
2023-11-27T08:25:32.957Z,70.28
2023-11-27T08:27:59.521Z,70.28
2023-11-27T08:30:28.446Z,70.28
2023-11-27T08:32:54.911Z,70.19
2023-11-27T08:35:21.331Z,70.21
2023-11-27T08:37:47.862Z,69.97
2023-11-27T08:40:17.793Z,69.98
2023-11-27T08:42:44.627Z,69.95
2023-11-27T08:45:11.922Z,69.86
2023-11-27T08:47:39.770Z,69.49
2023-11-27T08:50:14.724Z,69.39
2023-11-27T08:52:44.022Z,69.57
2023-11-27T08:55:11.410Z,69.60
2023-11-27T08:57:38.555Z,69.60
2023-11-27T09:00:13.038Z,69.55
2023-11-27T09:02:40.013Z,69.58
2023-11-27T09:05:07.505Z,69.46
2023-11-27T09:07:34.639Z,69.50
2023-11-27T09:10:03.691Z,69.56
2023-11-27T09:12:32.209Z,69.55
2023-11-27T09:14:59.405Z,69.65
2023-11-27T09:17:25.907Z,69.68
2023-11-27T09:19:52.779Z,69.70
2023-11-27T09:22:22.268Z,69.56
2023-11-27T09:24:49.332Z,69.51
2023-11-27T09:27:17.048Z,69.39
2023-11-27T09:29:44.283Z,69.07
2023-11-27T09:32:11.254Z,69.17
2023-11-27T09:34:37.802Z,69.28
2023-11-27T09:37:05.548Z,69.31
2023-11-27T09:39:32.595Z,68.87
2023-11-27T09:41:59.900Z,68.85
2023-11-27T09:44:26.725Z,68.91
2023-11-27T09:46:57.663Z,68.88
2023-11-27T09:49:26.489Z,68.66
2023-11-27T09:51:59.980Z,68.54
2023-11-27T09:54:33.637Z,68.42
2023-11-27T09:56:59.929Z,68.48
2023-11-27T09:59:30.793Z,68.25
2023-11-27T10:01:59.804Z,68.22
2023-11-27T10:04:26.577Z,67.98
2023-11-27T10:06:54.024Z,67.60
2023-11-27T10:09:22.955Z,67.05
2023-11-27T10:11:52.113Z,66.53
2023-11-27T10:14:36.450Z,66.46
2023-11-27T10:17:06.402Z,65.65
2023-11-27T10:19:33.486Z,65.61
2023-11-27T10:22:00.227Z,65.35
2023-11-27T10:24:26.994Z,64.97
2023-11-27T10:26:53.581Z,64.84
2023-11-27T10:29:27.317Z,64.48
2023-11-27T10:32:03.817Z,64.66
2023-11-27T10:34:34.398Z,64.74
2023-11-27T10:37:02.329Z,64.78
2023-11-27T10:39:33.360Z,64.60
2023-11-27T10:42:22.760Z,64.96
2023-11-27T10:44:51.501Z,65.00
2023-11-27T10:47:20.412Z,64.51
2023-11-27T10:49:50.604Z,64.91
2023-11-27T10:52:19.464Z,64.55
2023-11-27T10:54:49.637Z,64.32
2023-11-27T10:57:20.561Z,64.46
2023-11-27T10:59:47.863Z,64.51
2023-11-27T11:02:14.865Z,64.36
2023-11-27T11:04:57.429Z,64.77
2023-11-27T11:07:37.026Z,64.89
2023-11-27T11:10:07.730Z,64.72
2023-11-27T11:12:36.655Z,64.60
2023-11-27T11:15:04.194Z,64.43
2023-11-27T11:17:45.833Z,64.88
2023-11-27T11:20:44.174Z,63.99
2023-11-27T11:23:33.666Z,64.16
2023-11-27T11:26:34.013Z,63.68
2023-11-27T11:29:18.934Z,63.80
2023-11-27T11:31:50.032Z,63.21
2023-11-27T11:34:23.988Z,63.81
2023-11-27T11:37:00.999Z,63.30
2023-11-27T11:39:29.259Z,63.34
2023-11-27T11:42:05.328Z,63.52
2023-11-27T11:44:37.054Z,63.41
2023-11-27T11:47:22.613Z,63.59
2023-11-27T11:49:49.076Z,62.81
2023-11-27T11:52:19.606Z,62.43
2023-11-27T11:54:48.675Z,62.15
2023-11-27T11:57:21.954Z,62.14
2023-11-27T11:59:51.549Z,61.36
2023-11-27T12:02:23.943Z,61.94
2023-11-27T12:04:54.954Z,62.21
2023-11-27T12:07:25.398Z,62.11
2023-11-27T12:09:52.556Z,62.22
2023-11-27T12:12:23.091Z,61.61
2023-11-27T12:14:50.520Z,61.42
2023-11-27T12:17:21.398Z,62.43
2023-11-27T12:19:49.157Z,62.00
2023-11-27T12:22:15.905Z,60.95
2023-11-27T12:24:46.376Z,61.18
2023-11-27T12:27:12.976Z,59.69
2023-11-27T12:29:40.436Z,59.69
2023-11-27T12:32:08.710Z,58.39
2023-11-27T12:34:36.817Z,59.84
2023-11-27T12:37:04.848Z,59.98
2023-11-27T12:39:31.914Z,60.50
2023-11-27T12:42:02.304Z,61.02
2023-11-27T12:44:33.455Z,62.97
2023-11-27T12:47:06.752Z,63.66
2023-11-27T12:49:36.738Z,63.67
2023-11-27T12:52:15.269Z,62.96
2023-11-27T12:54:41.904Z,62.38
2023-11-27T12:57:10.165Z,61.84
2023-11-27T12:59:40.882Z,63.91
2023-11-27T13:02:08.248Z,63.39
2023-11-27T13:04:37.855Z,59.06
2023-11-27T13:07:06.867Z,55.25
2023-11-27T13:09:34.102Z,56.31
2023-11-27T13:12:15.746Z,57.57
2023-11-27T13:14:44.188Z,56.72
2023-11-27T13:17:19.856Z,60.44
2023-11-27T13:19:51.345Z,60.23
2023-11-27T13:22:18.558Z,61.49
2023-11-27T13:24:46.302Z,63.65
2023-11-27T13:27:21.545Z,65.37
2023-11-27T13:29:50.994Z,62.33
2023-11-27T13:32:18.816Z,58.21
2023-11-27T13:34:56.245Z,54.89
2023-11-27T13:37:35.682Z,54.72
2023-11-27T13:40:04.348Z,55.63
2023-11-27T13:42:31.360Z,56.75
2023-11-27T13:44:59.583Z,57.68
2023-11-27T13:47:26.562Z,58.03
2023-11-27T13:49:56.335Z,58.79
2023-11-27T13:52:31.141Z,59.57
2023-11-27T13:54:59.349Z,60.47
2023-11-27T13:57:31.898Z,61.55
2023-11-27T13:59:58.690Z,65.92
2023-11-27T14:02:28.581Z,68.33
2023-11-27T14:04:56.106Z,64.50
2023-11-27T14:07:25.471Z,61.09
2023-11-27T14:09:55.282Z,59.32
2023-11-27T14:12:35.733Z,58.30
2023-11-27T14:15:22.374Z,58.27
2023-11-27T14:18:09.202Z,59.69
2023-11-27T14:20:53.583Z,58.99
2023-11-27T14:23:26.539Z,60.24
2023-11-27T14:26:23.150Z,61.43
2023-11-27T14:28:49.937Z,64.27
2023-11-27T14:31:20.662Z,65.60
2023-11-27T14:33:51.200Z,65.48
2023-11-27T14:36:17.770Z,65.48
2023-11-27T14:38:47.001Z,65.19
2023-11-27T14:41:14.064Z,65.13
2023-11-27T14:43:40.824Z,65.15
2023-11-27T14:46:15.603Z,65.15
2023-11-27T14:48:42.783Z,64.65
2023-11-27T14:51:12.483Z,64.43
2023-11-27T14:53:44.432Z,64.28
2023-11-27T14:56:12.357Z,64.35
2023-11-27T14:58:38.998Z,64.63
2023-11-27T15:01:08.925Z,64.77
2023-11-27T15:03:40.050Z,64.52
2023-11-27T15:06:08.585Z,64.39
2023-11-27T15:08:35.104Z,64.53
2023-11-27T15:11:04.065Z,64.33
2023-11-27T15:13:31.286Z,64.28
2023-11-27T15:15:59.422Z,64.14
2023-11-27T15:18:27.409Z,64.19
2023-11-27T15:20:54.397Z,64.34
2023-11-27T15:23:22.477Z,64.36
2023-11-27T15:25:51.982Z,64.46
2023-11-27T15:28:24.163Z,64.41
2023-11-27T15:30:55.470Z,64.40
2023-11-27T15:33:26.294Z,64.55
2023-11-27T15:35:53.545Z,64.65
2023-11-27T15:38:20.674Z,64.71
2023-11-27T15:40:48.554Z,64.36
2023-11-27T15:43:15.482Z,64.33
2023-11-27T15:45:42.139Z,64.52
2023-11-27T15:48:13.252Z,64.47
2023-11-27T15:50:40.165Z,64.50
2023-11-27T15:56:54.630Z,64.91
2023-11-27T15:59:21.634Z,64.83
2023-11-27T16:01:48.743Z,64.87
2023-11-27T16:04:16.011Z,64.87
2023-11-27T16:06:42.814Z,64.92
2023-11-27T16:09:10.616Z,65.20
2023-11-27T16:11:37.108Z,65.34
2023-11-27T16:14:08.869Z,65.03
2023-11-27T16:16:43.262Z,64.91
2023-11-27T16:19:09.750Z,64.83
2023-11-27T16:21:37.818Z,64.91
2023-11-27T16:24:07.224Z,64.64
2023-11-27T16:26:33.936Z,64.61
2023-11-27T16:29:01.244Z,64.83
2023-11-27T16:31:28.106Z,64.91
2023-11-27T16:33:55.144Z,64.99
2023-11-27T16:36:21.680Z,64.83
2023-11-27T16:38:48.318Z,64.65
2023-11-27T16:41:15.880Z,64.87
2023-11-27T16:43:43.393Z,65.22
2023-11-27T16:46:10.686Z,65.16
2023-11-27T16:48:37.493Z,65.02
2023-11-27T16:51:04.517Z,64.87
2023-11-27T16:53:32.259Z,64.60
2023-11-27T16:56:00.530Z,64.58
2023-11-27T16:58:28.198Z,64.53
2023-11-27T17:00:54.804Z,64.48
2023-11-27T17:03:22.065Z,64.42
2023-11-27T17:05:50.297Z,64.55
2023-11-27T17:08:20.011Z,64.67
2023-11-27T17:10:51.234Z,64.83
2023-11-27T17:13:17.726Z,64.85
2023-11-27T17:15:48.027Z,64.81
2023-11-27T17:18:16.411Z,64.95
2023-11-27T17:20:47.179Z,64.81
2023-11-27T17:23:15.566Z,64.99
2023-11-27T17:25:42.946Z,64.87
2023-11-27T17:28:14.355Z,65.16
2023-11-27T17:30:46.014Z,65.25
2023-11-27T17:33:13.329Z,65.48
2023-11-27T17:35:40.227Z,65.48
2023-11-27T17:38:07.165Z,65.33
2023-11-27T17:40:33.824Z,65.39
2023-11-27T17:43:00.409Z,65.57
2023-11-27T17:45:26.824Z,65.51
2023-11-27T17:47:53.652Z,65.78
2023-11-27T17:50:23.444Z,66.27
2023-11-27T17:52:54.504Z,66.39
2023-11-27T17:55:35.784Z,66.33
2023-11-27T17:58:09.325Z,67.22
2023-11-27T18:00:35.709Z,66.52
2023-11-27T18:03:02.209Z,66.14
2023-11-27T18:05:32.376Z,66.37
2023-11-27T18:08:01.843Z,66.43
2023-11-27T18:10:28.711Z,66.59
2023-11-27T18:12:55.184Z,66.76
2023-11-27T18:15:24.721Z,66.80
2023-11-27T18:17:52.684Z,66.87
2023-11-27T18:20:22.698Z,66.27
2023-11-27T18:22:49.390Z,66.29
2023-11-27T18:25:21.622Z,67.13
2023-11-27T18:27:57.899Z,67.71
2023-11-27T18:30:24.702Z,67.91
2023-11-27T18:32:54.496Z,67.87
2023-11-27T18:35:20.819Z,67.81
2023-11-27T18:37:48.130Z,67.77
2023-11-27T18:40:15.727Z,67.87
2023-11-27T18:42:43.309Z,67.59
2023-11-27T18:45:11.698Z,68.14
2023-11-27T18:47:42.741Z,68.58
2023-11-27T18:50:12.332Z,68.68
2023-11-27T18:52:38.840Z,68.65
2023-11-27T18:55:06.513Z,68.62
2023-11-27T18:57:36.186Z,68.58
2023-11-27T19:00:06.440Z,68.76
2023-11-27T19:02:33.501Z,68.85
2023-11-27T19:05:02.069Z,68.85
2023-11-27T19:07:28.789Z,68.91
2023-11-27T19:09:55.810Z,68.99
2023-11-27T19:12:22.172Z,69.15
2023-11-27T19:14:55.132Z,69.17
2023-11-27T19:17:22.241Z,69.20
2023-11-27T19:19:49.494Z,69.52
2023-11-27T19:22:16.761Z,69.63
2023-11-27T19:24:46.308Z,69.75
2023-11-27T19:27:13.062Z,69.39
2023-11-27T19:29:39.656Z,69.55
2023-11-27T19:32:09.974Z,69.41
2023-11-27T19:34:43.323Z,69.17
2023-11-27T19:37:10.563Z,69.15
2023-11-27T19:39:37.281Z,69.07
2023-11-27T19:42:04.471Z,68.72
2023-11-27T19:44:30.950Z,68.62
2023-11-27T19:46:59.940Z,68.84
2023-11-27T19:49:27.287Z,68.83
2023-11-27T19:51:54.659Z,68.87
2023-11-27T19:54:24.748Z,68.75
2023-11-27T19:56:51.474Z,68.04
2023-11-27T19:59:19.440Z,68.27
2023-11-27T20:01:46.324Z,68.27
2023-11-27T20:04:14.310Z,68.14
2023-11-27T20:06:43.601Z,67.96
2023-11-27T20:09:13.008Z,67.74
2023-11-27T20:11:40.007Z,67.74
2023-11-27T20:14:07.805Z,67.76
2023-11-27T20:16:37.989Z,67.38
2023-11-27T20:19:06.727Z,67.45
2023-11-27T20:21:34.252Z,67.58
2023-11-27T20:24:02.259Z,67.45
2023-11-27T20:26:29.244Z,67.35
2023-11-27T20:29:00.241Z,67.27
2023-11-27T20:31:33.992Z,67.16
2023-11-27T20:34:04.244Z,67.23
2023-11-27T20:36:33.287Z,67.31
2023-11-27T20:39:00.851Z,67.32
2023-11-27T20:41:27.578Z,67.37
2023-11-27T20:43:58.464Z,67.41
2023-11-27T20:46:28.031Z,67.36
2023-11-27T20:48:55.181Z,67.33
2023-11-27T20:51:21.790Z,67.27
2023-11-27T20:53:48.325Z,67.40
2023-11-27T20:56:15.536Z,67.26
2023-11-27T20:58:43.009Z,67.28
2023-11-27T21:01:09.722Z,67.17
2023-11-27T21:03:39.549Z,67.00
2023-11-27T21:06:07.379Z,66.98
2023-11-27T21:08:34.943Z,66.86
2023-11-27T21:11:02.648Z,66.94
2023-11-27T21:13:29.100Z,67.14
2023-11-27T21:15:57.640Z,67.22
2023-11-27T21:18:24.323Z,67.30
2023-11-27T21:20:52.115Z,67.16
2023-11-27T21:23:20.584Z,67.36
2023-11-27T21:25:47.769Z,67.39
2023-11-27T21:28:14.598Z,67.33
2023-11-27T21:30:41.290Z,67.20
2023-11-27T21:33:08.195Z,67.20
2023-11-27T21:35:34.941Z,67.32
2023-11-27T21:38:01.303Z,67.38
2023-11-27T21:40:37.163Z,67.41
2023-11-27T21:43:03.798Z,67.45
2023-11-27T21:45:31.255Z,67.49
2023-11-27T21:47:58.268Z,67.55
2023-11-27T21:50:27.430Z,67.62
2023-11-27T21:52:54.097Z,67.46
2023-11-27T21:55:20.780Z,67.55
2023-11-27T21:57:47.524Z,67.49
2023-11-27T22:00:14.416Z,67.34
2023-11-27T22:02:42.113Z,67.25
2023-11-27T22:05:10.305Z,67.17
2023-11-27T22:07:37.775Z,67.20
2023-11-27T22:10:05.288Z,67.09
2023-11-27T22:12:32.512Z,66.84
2023-11-27T22:14:59.803Z,66.80
2023-11-27T22:17:28.394Z,66.79
2023-11-27T22:19:54.938Z,66.65
2023-11-27T22:22:21.636Z,66.20
2023-11-27T22:24:48.121Z,66.38
2023-11-27T22:27:14.988Z,66.19
2023-11-27T22:29:43.128Z,66.26
2023-11-27T22:32:09.617Z,66.20
2023-11-27T22:34:36.243Z,66.26
2023-11-27T22:37:02.814Z,66.14
2023-11-27T22:39:29.330Z,66.28
2023-11-27T22:41:55.810Z,66.37
2023-11-27T22:44:22.094Z,66.33
2023-11-27T22:46:48.576Z,66.37
2023-11-27T22:49:15.057Z,66.39
2023-11-27T22:51:41.628Z,66.48
2023-11-27T22:54:08.061Z,66.67
2023-11-27T22:56:34.549Z,66.80
2023-11-27T22:59:11.267Z,66.96
2023-11-27T23:01:43.394Z,67.12
2023-11-27T23:04:10.437Z,67.15
2023-11-27T23:06:38.563Z,67.27
2023-11-27T23:09:08.359Z,67.33
2023-11-27T23:11:34.928Z,67.38
2023-11-27T23:14:01.811Z,67.73
2023-11-27T23:16:28.399Z,67.53
2023-11-27T23:18:54.908Z,67.50
2023-11-27T23:21:23.074Z,67.55
2023-11-27T23:23:49.658Z,67.69
2023-11-27T23:26:16.978Z,67.74
2023-11-27T23:28:44.388Z,67.72
2023-11-27T23:31:11.294Z,67.84
2023-11-27T23:33:37.973Z,67.81
2023-11-27T23:36:06.925Z,67.78
2023-11-27T23:38:34.330Z,67.94
2023-11-27T23:41:02.094Z,68.02
2023-11-27T23:43:28.992Z,68.16
2023-11-27T23:45:55.477Z,68.18
2023-11-27T23:48:23.234Z,68.37
2023-11-27T23:50:50.461Z,68.62
2023-11-27T23:53:17.010Z,68.75
2023-11-27T23:55:43.493Z,68.66
2023-11-27T23:58:10.915Z,68.68
